METAR Data
IDs: Format: Raw Decoded Include TAF

Data at: 1214 UTC 09 Dec 2019

KRKW 091155Z AUTO VRB07KT 10SM OVC018 08/05 A2997 RMK A01
KRKW 091135Z AUTO 23005KT 10SM OVC018 08/05 A2998 RMK A01
KRKW 091115Z AUTO 22008G14KT 10SM OVC018 08/05 A2998 RMK A01
KRKW 091055Z AUTO 22006G13KT 10SM OVC019 08/05 A2998 RMK A01
KRKW 091035Z AUTO 23005KT 10SM OVC018 07/05 A2999 RMK A01
KRKW 091015Z AUTO 22006KT 10SM OVC017 07/05 A2999 RMK A01
KRKW 090955Z AUTO 25007KT 10SM OVC016 07/06 A2999 RMK A01
KRKW 090935Z AUTO 25006G12KT 10SM BKN014 OVC018 07/06 A3000 RMK A01
KRKW 090915Z AUTO 23007G13KT 190V250 5SM BR SCT014 OVC019 07/06 A2999 RMK A01
KRKW 090855Z AUTO 22007G12KT 4SM BR OVC019 07/06 A3001 RMK A01
KRKW 090835Z AUTO 23007KT 10SM OVC019 07/05 A3002 RMK A01
KRKW 090815Z AUTO 22008G15KT 6SM HZ OVC022 08/05 A3002 RMK A01
KRKW 090755Z AUTO 20009G15KT 5SM HZ OVC022 08/05 A3001 RMK A01 P0001
KRKW 090735Z AUTO 22008KT 10SM OVC022 09/04 A3002 RMK A01
KRKW 090715Z AUTO 24006KT 10SM OVC021 09/04 A3003 RMK A01
KRKW 090655Z AUTO 25007KT 10SM OVC022 08/04 A3004 RMK A01
KRKW 090635Z AUTO 23006G12KT 10SM OVC023 09/04 A3004 RMK A01
KRKW 090615Z AUTO 23008KT 10SM OVC023 09/04 A3005 RMK A01
KRKW 090555Z AUTO 22010KT 10SM OVC024 08/04 A3006 RMK A01
KRKW 090535Z AUTO 23007KT 9SM BKN025 OVC040 08/05 A3007 RMK A01
KRKW 090515Z AUTO 23007G15KT 10SM BKN025 BKN030 OVC040 09/03 A3008 RMK A01
KRKW 090455Z AUTO 22010KT 10SM OVC025 10/02 A3009 RMK A01
KRKW 090435Z AUTO 22009KT 10SM OVC026 10/02 A3009 RMK A01
KRKW 090415Z AUTO 21010KT 10SM OVC026 10/02 A3008 RMK A01
KRKW 090355Z AUTO 22009G15KT 200V260 10SM OVC026 10/02 A3008 RMK A01
KRKW 090335Z AUTO 22006KT 10SM OVC027 10/02 A3009 RMK A01
KRKW 090315Z AUTO 21007G12KT 10SM OVC027 10/02 A3009 RMK A01
KRKW 090255Z AUTO 21008G14KT 10SM OVC028 10/02 A3009 RMK A01
KRKW 090235Z AUTO 21007KT 10SM OVC030 10/02 A3010 RMK A01
KRKW 090215Z AUTO 22006KT 10SM OVC030 10/02 A3011 RMK A01
KRKW 090155Z AUTO 22008KT 10SM OVC030 11/02 A3011 RMK A01
KRKW 090135Z AUTO VRB05KT 10SM OVC029 11/02 A3011 RMK A01
KRKW 090115Z AUTO 21006G11KT 10SM OVC031 11/02 A3012 RMK A01
KRKW 090055Z AUTO 21007G12KT 10SM BKN033 OVC038 11/02 A3012 RMK A01
KRKW 090035Z AUTO 21007G13KT 10SM OVC035 11/02 A3011 RMK A01
KRKW 090015Z AUTO 21008KT 10SM OVC036 11/02 A3012 RMK A01
KRKW 082355Z AUTO 19007G13KT 10SM OVC036 11/02 A3012 RMK A01
KRKW 082335Z AUTO 19006G13KT 10SM OVC035 11/02 A3012 RMK A01
KRKW 082315Z AUTO 20007KT 10SM OVC035 11/02 A3012 RMK A01
KRKW 082255Z AUTO VRB05KT 10SM BKN035 OVC044 11/02 A3012 RMK A01
KRKW 082235Z AUTO 21006KT 10SM OVC035 12/02 A3013 RMK A01
KRKW 082215Z AUTO 23004KT 10SM OVC035 12/03 A3013 RMK A01
KRKW 082155Z AUTO 20008KT 10SM BKN036 BKN047 OVC065 12/03 A3014 RMK A01
KRKW 082135Z AUTO 21007KT 10SM FEW036 FEW046 OVC065 12/03 A3014 RMK A01
KRKW 082115Z AUTO 19009KT 10SM FEW046 OVC065 12/03 A3013 RMK A01
KRKW 082055Z AUTO 19008KT 150V220 10SM FEW048 OVC060 12/03 A3014 RMK A01
KRKW 082035Z AUTO 21008G15KT 190V250 10SM SCT048 OVC060 12/04 A3015 RMK A01
KRKW 082015Z AUTO 19008KT 10SM BKN055 12/04 A3016 RMK A01
KRKW 081955Z AUTO VRB06G13KT 10SM BKN050 12/04 A3015 RMK A01
KRKW 081935Z AUTO 17007KT 140V210 10SM FEW050 12/04 A3015 RMK A01
KRKW 081915Z AUTO 20009KT 10SM CLR 12/04 A3016 RMK A01
KRKW 081855Z AUTO 17007KT 150V210 10SM FEW055 12/04 A3017 RMK A01
KRKW 081835Z AUTO 21009KT 10SM BKN055 11/04 A3020 RMK A01
KRKW 081815Z AUTO 19013KT 10SM SCT055 11/04 A3020 RMK A01
KRKW 081755Z AUTO 21011G18KT 10SM FEW038 11/04 A3021 RMK A01
KRKW 081735Z AUTO 20011G16KT 140V220 10SM SCT037 10/04 A3021 RMK A01
KRKW 081715Z AUTO 20011KT 170V230 10SM FEW038 10/04 A3022 RMK A01
KRKW 081655Z AUTO 19012KT 10SM CLR 10/04 A3023 RMK A01
KRKW 081635Z AUTO 19008G14KT 10SM CLR 10/04 A3025 RMK A01
KRKW 081615Z AUTO 22010KT 10SM CLR 10/04 A3026 RMK A01
KRKW 081555Z AUTO 20008G14KT 10SM CLR 09/04 A3026 RMK A01
KRKW 081535Z AUTO 20007G14KT 10SM CLR 09/04 A3027 RMK A01
KRKW 081515Z AUTO VRB05G14KT 10SM CLR 09/05 A3027 RMK A01
KRKW 081455Z AUTO 22006KT 10SM CLR 08/05 A3027 RMK A01
KRKW 081435Z AUTO VRB04KT 10SM CLR 07/04 A3028 RMK A01
KRKW 081415Z AUTO 22004KT 10SM CLR 06/04 A3027 RMK A01
KRKW 081355Z AUTO 27004KT 10SM CLR 05/03 A3027 RMK A01
KRKW 081335Z AUTO 21005KT 10SM CLR 04/04 A3027 RMK A01
KRKW 081315Z AUTO 00000KT 10SM CLR 03/03 A3026 RMK A01
KRKW 081255Z AUTO 00000KT 9SM CLR 02/02 A3025 RMK A01
KRKW 081235Z AUTO 00000KT 10SM CLR 03/02 A3025 RMK A01
KRKW 081215Z AUTO 00000KT 10SM CLR 02/02 A3026 RMK A01
KRKW 081155Z AUTO 18003KT 10SM CLR 02/02 A3025 RMK A01
KRKW 081135Z AUTO 17003KT 10SM CLR 03/02 A3025 RMK A01
KRKW 081115Z AUTO 17008KT 150V210 10SM CLR 04/03 A3025 RMK A01
KRKW 081055Z AUTO 19003KT 10SM CLR 03/02 A3024 RMK A01
KRKW 081035Z AUTO 17004KT 10SM CLR 04/03 A3024 RMK A01
KRKW 081015Z AUTO 17003KT 10SM CLR 04/03 A3024 RMK A01
KRKW 080955Z AUTO 15005KT 10SM CLR 05/03 A3024 RMK A01
KRKW 080935Z AUTO 16004KT 10SM FEW047 05/03 A3024 RMK A01
KRKW 080915Z AUTO 17005KT 10SM SCT047 05/03 A3025 RMK A01
KRKW 080855Z AUTO 16005KT 10SM CLR 06/03 A3025 RMK A01
KRKW 080835Z AUTO 16005KT 10SM CLR 05/03 A3025 RMK A01
KRKW 080815Z AUTO 15005KT 10SM CLR 05/03 A3025 RMK A01
KRKW 080755Z AUTO 15005KT 10SM CLR 05/03 A3025 RMK A01
KRKW 080735Z AUTO 15005KT 10SM CLR 06/03 A3025 RMK A01
KRKW 080715Z AUTO 17005KT 10SM CLR 04/03 A3025 RMK A01
KRKW 080655Z AUTO 00000KT 10SM CLR 04/03 A3025 RMK A01
KRKW 080635Z AUTO 00000KT 10SM CLR 04/03 A3025 RMK A01
KRKW 080615Z AUTO 00000KT 10SM CLR 04/03 A3025 RMK A01
KRKW 080555Z AUTO 00000KT 10SM FEW040 04/03 A3025 RMK A01
KRKW 080535Z AUTO 00000KT 10SM FEW039 04/02 A3025 RMK A01
KRKW 080515Z AUTO 11004KT 10SM CLR 06/03 A3025 RMK A01
KRKW 080455Z AUTO 10003KT 10SM SCT038 05/03 A3026 RMK A01
KRKW 080435Z AUTO 13003KT 10SM BKN038 06/03 A3026 RMK A01
KRKW 080415Z AUTO 12004KT 10SM BKN036 06/03 A3026 RMK A01
KRKW 080355Z AUTO 11006KT 10SM FEW034 SCT039 06/04 A3025 RMK A01
KRKW 080335Z AUTO 13006KT 10SM FEW037 07/04 A3026 RMK A01
KRKW 080315Z AUTO 12004KT 10SM FEW038 07/04 A3026 RMK A01
KRKW 080255Z AUTO 12003KT 10SM FEW035 06/04 A3027 RMK A01
KRKW 080235Z AUTO 00000KT 10SM CLR 06/04 A3027 RMK A01
KRKW 080215Z AUTO 00000KT 10SM CLR 06/04 A3026 RMK A01
KRKW 080155Z AUTO 00000KT 10SM CLR 06/04 A3027 RMK A01
KRKW 080135Z AUTO 00000KT 10SM CLR 06/04 A3027 RMK A01
KRKW 080115Z AUTO 00000KT 10SM CLR 06/04 A3026 RMK A01
KRKW 080055Z AUTO 00000KT 10SM CLR 07/04 A3026 RMK A01
KRKW 080035Z AUTO 36003KT 10SM CLR 06/04 A3026 RMK A01
KRKW 080015Z AUTO 03003KT 10SM CLR 07/05 A3026 RMK A01